createdAt,value
2019-05-06T00:01:38.097Z,7.60
2019-05-06T00:04:41.812Z,7.70
2019-05-06T00:07:53.813Z,7.50
2019-05-06T00:10:58.337Z,7.70
2019-05-06T00:14:03.902Z,7.50
2019-05-06T00:17:07.658Z,7.50
2019-05-06T00:20:11.509Z,7.40
2019-05-06T00:23:20.845Z,7.60
2019-05-06T00:26:45.275Z,7.40
2019-05-06T00:29:49.005Z,7.50
2019-05-06T00:32:53.851Z,7.40
2019-05-06T00:36:00.349Z,7.60
2019-05-06T00:39:27.805Z,7.50
2019-05-06T00:42:34.620Z,7.50
2019-05-06T00:45:38.310Z,7.50
2019-05-06T00:48:41.988Z,7.60
2019-05-06T00:51:45.740Z,7.70
2019-05-06T00:54:49.902Z,7.70
2019-05-06T00:57:54.508Z,7.80
2019-05-06T01:00:58.358Z,7.80
2019-05-06T01:04:04.434Z,7.80
2019-05-06T01:07:07.561Z,7.80
2019-05-06T01:10:11.705Z,7.90
2019-05-06T01:13:27.289Z,7.80
2019-05-06T01:16:31.181Z,7.70
2019-05-06T01:19:35.029Z,7.80
2019-05-06T01:22:38.731Z,7.80
2019-05-06T01:25:43.822Z,7.90
2019-05-06T01:28:47.685Z,8.00
2019-05-06T01:31:51.410Z,8.00
2019-05-06T01:34:55.070Z,8.10
2019-05-06T01:38:16.127Z,7.90
2019-05-06T01:41:34.273Z,7.90
2019-05-06T01:44:37.973Z,8.00
2019-05-06T01:47:43.764Z,7.80
2019-05-06T01:50:47.754Z,7.70
2019-05-06T01:53:54.172Z,7.80
2019-05-06T01:56:57.471Z,8.00
2019-05-06T02:00:01.618Z,7.80
2019-05-06T02:03:05.310Z,7.70
2019-05-06T02:06:09.006Z,7.70
2019-05-06T02:09:15.842Z,7.60
2019-05-06T02:12:19.578Z,7.50
2019-05-06T02:15:23.914Z,7.50
2019-05-06T02:18:27.796Z,7.50
2019-05-06T02:21:49.247Z,7.40
2019-05-06T02:24:59.151Z,7.40
2019-05-06T02:28:03.956Z,7.10
2019-05-06T02:31:25.933Z,7.30
2019-05-06T02:34:47.183Z,7.00
2019-05-06T02:37:50.899Z,7.00
2019-05-06T02:40:54.754Z,6.90
2019-05-06T02:43:58.630Z,7.00
2019-05-06T02:47:22.859Z,6.80
2019-05-06T02:50:27.001Z,6.70
2019-05-06T02:53:33.418Z,6.70
2019-05-06T02:56:36.384Z,6.70
2019-05-06T02:59:40.068Z,6.60
2019-05-06T03:02:48.025Z,6.30
2019-05-06T03:05:49.231Z,6.40
2019-05-06T03:08:54.455Z,6.30
2019-05-06T03:11:58.311Z,6.30
2019-05-06T03:15:03.387Z,6.10
2019-05-06T03:18:07.284Z,6.10
2019-05-06T03:21:39.030Z,6.10
2019-05-06T03:24:47.960Z,6.10
2019-05-06T03:27:53.246Z,6.00
2019-05-06T03:30:57.275Z,6.10
2019-05-06T03:34:28.429Z,6.00
2019-05-06T03:37:08.446Z,5.80
2019-05-06T03:40:13.872Z,5.90
2019-05-06T03:43:17.674Z,5.80
2019-05-06T03:46:29.170Z,5.70
2019-05-06T03:49:34.756Z,5.50
2019-05-06T03:52:38.419Z,5.50
2019-05-06T03:55:46.780Z,5.50
2019-05-06T03:58:53.745Z,5.60
2019-05-06T04:01:57.109Z,5.80
2019-05-06T04:05:03.583Z,5.60
2019-05-06T04:08:06.374Z,5.60
2019-05-06T04:11:13.652Z,5.70
2019-05-06T04:14:18.431Z,5.70
2019-05-06T04:17:32.909Z,5.50
2019-05-06T04:20:58.949Z,5.90
2019-05-06T04:24:15.539Z,5.80
2019-05-06T04:27:35.551Z,5.80
2019-05-06T04:30:42.912Z,5.80
2019-05-06T04:34:03.559Z,5.80
2019-05-06T04:36:53.298Z,5.90
2019-05-06T04:39:57.810Z,5.80
2019-05-06T04:43:03.610Z,6.00
2019-05-06T04:46:07.298Z,6.00
2019-05-06T04:49:14.847Z,6.00
2019-05-06T04:52:17.365Z,6.00
2019-05-06T04:55:22.638Z,6.30
2019-05-06T04:58:27.540Z,6.30
2019-05-06T05:01:34.032Z,6.40
2019-05-06T05:04:37.245Z,6.60
2019-05-06T05:07:42.559Z,6.50
2019-05-06T05:10:55.010Z,7.00
2019-05-06T05:14:14.742Z,7.00
2019-05-06T05:17:36.946Z,6.90
2019-05-06T05:20:45.655Z,7.30
2019-05-06T05:23:46.368Z,7.40
2019-05-06T05:26:52.193Z,7.70
2019-05-06T05:29:56.085Z,7.80
2019-05-06T05:33:00.098Z,7.80
2019-05-06T05:36:04.340Z,8.00
2019-05-06T05:39:17.595Z,8.30
2019-05-06T05:42:28.120Z,8.20
2019-05-06T05:45:32.731Z,8.40
2019-05-06T05:48:47.594Z,8.60
2019-05-06T05:51:52.049Z,8.90
2019-05-06T05:54:55.897Z,9.10
2019-05-06T05:57:59.590Z,9.50
2019-05-06T06:01:04.200Z,9.80
2019-05-06T06:04:08.158Z,9.90
2019-05-06T06:07:12.221Z,9.90
2019-05-06T06:10:22.634Z,10.10
2019-05-06T06:13:26.535Z,10.20
2019-05-06T06:16:44.246Z,10.50
2019-05-06T06:20:08.886Z,10.50
2019-05-06T06:23:19.506Z,10.70
2019-05-06T06:26:23.277Z,11.10
2019-05-06T06:29:27.638Z,11.30
2019-05-06T06:32:32.613Z,11.30
2019-05-06T06:36:02.865Z,11.00
2019-05-06T06:39:14.625Z,10.90
2019-05-06T06:42:18.374Z,10.90
2019-05-06T06:45:23.083Z,11.10
2019-05-06T06:48:27.967Z,11.40
2019-05-06T06:51:33.039Z,11.80
2019-05-06T06:54:36.958Z,11.90
2019-05-06T06:58:11.837Z,11.80
2019-05-06T07:01:33.139Z,11.70
2019-05-06T07:04:43.121Z,11.50
2019-05-06T07:07:47.952Z,11.20
2019-05-06T07:10:52.525Z,11.50
2019-05-06T07:13:57.145Z,11.70
2019-05-06T07:17:02.482Z,11.60
2019-05-06T07:20:09.566Z,11.60
2019-05-06T07:23:25.746Z,11.50
2019-05-06T07:26:33.717Z,11.00
2019-05-06T07:29:37.438Z,10.70
2019-05-06T07:32:42.402Z,10.60
2019-05-06T07:35:47.242Z,10.60
2019-05-06T07:38:52.777Z,10.90
2019-05-06T07:42:02.443Z,10.90
2019-05-06T07:45:32.851Z,10.80
2019-05-06T07:48:37.419Z,11.00
2019-05-06T07:51:42.012Z,11.30
2019-05-06T07:54:45.791Z,11.20
2019-05-06T07:57:50.569Z,11.10
2019-05-06T08:00:55.367Z,11.10
2019-05-06T08:03:59.086Z,11.00
2019-05-06T08:07:03.243Z,11.10
2019-05-06T08:10:07.165Z,11.10
2019-05-06T08:13:12.998Z,11.00
2019-05-06T08:16:17.031Z,11.10
2019-05-06T08:19:22.751Z,11.40
2019-05-06T08:22:49.624Z,11.50
2019-05-06T08:26:08.354Z,11.30
2019-05-06T08:28:59.198Z,11.20
2019-05-06T08:32:03.048Z,11.40
2019-05-06T08:35:09.969Z,11.40
2019-05-06T08:38:12.673Z,11.30
2019-05-06T08:41:16.345Z,10.90
2019-05-06T08:44:20.024Z,10.80
2019-05-06T08:47:23.794Z,10.90
2019-05-06T08:50:32.678Z,11.10
2019-05-06T08:53:47.206Z,11.50
2019-05-06T08:56:52.296Z,12.10
2019-05-06T08:59:56.282Z,12.50
2019-05-06T09:02:59.955Z,12.70
2019-05-06T09:06:03.913Z,12.50
2019-05-06T09:09:08.886Z,12.00
2019-05-06T09:12:13.099Z,11.90
2019-05-06T09:15:17.189Z,12.10
2019-05-06T09:18:20.906Z,12.20
2019-05-06T09:21:24.609Z,12.40
2019-05-06T09:24:28.341Z,12.30
2019-05-06T09:27:55.151Z,12.60
2019-05-06T09:31:05.588Z,12.10
2019-05-06T09:34:17.734Z,11.90
2019-05-06T09:37:23.917Z,11.80
2019-05-06T09:40:27.436Z,12.00
2019-05-06T09:43:32.782Z,12.30
2019-05-06T09:46:36.785Z,12.70
2019-05-06T09:49:42.544Z,12.70
2019-05-06T09:52:46.071Z,12.60
2019-05-06T09:56:07.942Z,12.60
2019-05-06T09:59:12.925Z,12.70
2019-05-06T10:02:17.167Z,12.70
2019-05-06T10:05:20.961Z,12.20
2019-05-06T10:08:24.741Z,11.90
2019-05-06T10:11:28.517Z,11.80
2019-05-06T10:14:32.550Z,11.60
2019-05-06T10:17:36.269Z,11.80
2019-05-06T10:20:43.274Z,12.30
2019-05-06T10:23:47.723Z,12.50
2019-05-06T10:26:56.300Z,12.50
2019-05-06T10:30:06.583Z,12.50
2019-05-06T10:33:14.271Z,12.30
2019-05-06T10:36:18.196Z,12.30
2019-05-06T10:39:25.561Z,12.30
2019-05-06T10:42:36.046Z,12.90
2019-05-06T10:45:39.880Z,13.40
2019-05-06T10:48:43.925Z,13.80
2019-05-06T10:51:56.029Z,13.90
2019-05-06T10:54:59.773Z,14.10
2019-05-06T10:58:03.550Z,14.30
2019-05-06T11:01:16.509Z,14.50
2019-05-06T11:04:22.533Z,14.20
2019-05-06T11:07:31.514Z,14.20
2019-05-06T11:10:40.451Z,13.70
2019-05-06T11:13:37.222Z,13.40
2019-05-06T11:16:41.105Z,13.00
2019-05-06T11:19:45.224Z,13.10
2019-05-06T11:22:48.945Z,13.10
2019-05-06T11:25:52.901Z,13.30
2019-05-06T11:29:05.148Z,13.50
2019-05-06T11:32:14.994Z,13.40
2019-05-06T11:35:35.346Z,13.40
2019-05-06T11:38:39.425Z,13.20
2019-05-06T11:42:01.060Z,13.10
2019-05-06T11:44:48.737Z,12.90
2019-05-06T11:47:55.888Z,12.80
2019-05-06T11:51:00.879Z,12.80
2019-05-06T11:54:16.404Z,13.00
2019-05-06T11:57:12.433Z,13.60
2019-05-06T12:00:19.514Z,14.00
2019-05-06T12:03:23.509Z,14.40
2019-05-06T12:06:27.321Z,14.80
2019-05-06T12:09:33.030Z,15.00
2019-05-06T12:12:36.862Z,15.00
2019-05-06T12:15:40.605Z,15.00
2019-05-06T12:18:44.344Z,14.70
2019-05-06T12:21:48.109Z,14.50
2019-05-06T12:24:52.631Z,14.20
2019-05-06T12:27:56.395Z,14.00
2019-05-06T12:31:00.201Z,13.90
2019-05-06T12:34:04.026Z,13.80
2019-05-06T12:37:11.678Z,13.70
2019-05-06T12:40:15.305Z,14.00
2019-05-06T12:43:43.168Z,14.00
2019-05-06T12:46:59.620Z,14.10
2019-05-06T12:50:02.661Z,14.20
2019-05-06T12:53:06.806Z,14.20
2019-05-06T12:56:12.391Z,14.00
2019-05-06T12:59:15.935Z,13.90
2019-05-06T13:02:19.598Z,13.90
2019-05-06T13:05:24.159Z,13.80
2019-05-06T13:08:47.852Z,13.50
2019-05-06T13:11:33.794Z,13.40
2019-05-06T13:14:37.530Z,13.60
2019-05-06T13:17:42.645Z,13.70
2019-05-06T13:20:49.403Z,14.00
2019-05-06T13:24:00.398Z,14.10
2019-05-06T13:27:04.431Z,13.90
2019-05-06T13:30:08.857Z,13.80
2019-05-06T13:33:34.503Z,13.90
2019-05-06T13:36:38.486Z,14.00
2019-05-06T13:39:43.590Z,14.00
2019-05-06T13:43:09.800Z,14.00
2019-05-06T13:46:17.743Z,14.10
2019-05-06T13:49:42.956Z,14.30
2019-05-06T13:52:48.494Z,14.40
2019-05-06T13:55:52.741Z,14.20
2019-05-06T13:58:56.876Z,14.10
2019-05-06T14:02:25.825Z,14.00
2019-05-06T14:05:30.384Z,14.10
2019-05-06T14:08:34.107Z,13.90
2019-05-06T14:11:38.371Z,13.90
2019-05-06T14:14:43.211Z,14.00
2019-05-06T14:17:47.146Z,14.20
2019-05-06T14:20:52.143Z,14.30
2019-05-06T14:23:56.301Z,14.20
2019-05-06T14:27:03.898Z,14.30
2019-05-06T14:30:14.639Z,14.40
2019-05-06T14:33:19.966Z,14.40
2019-05-06T14:36:27.411Z,14.10
2019-05-06T14:39:48.957Z,13.90
2019-05-06T14:42:37.965Z,14.00
2019-05-06T14:45:42.329Z,13.80
2019-05-06T14:48:46.182Z,13.60
2019-05-06T14:51:50.102Z,13.50
2019-05-06T14:55:01.718Z,13.40
2019-05-06T14:58:06.026Z,13.40
2019-05-06T15:01:09.738Z,13.30
2019-05-06T15:04:13.509Z,13.20
2019-05-06T15:07:17.474Z,13.20
2019-05-06T15:10:24.019Z,13.10
2019-05-06T15:13:27.234Z,12.90
2019-05-06T15:16:30.947Z,12.80
2019-05-06T15:19:34.990Z,12.80
2019-05-06T15:22:38.879Z,12.80
2019-05-06T15:25:42.626Z,12.70
2019-05-06T15:28:46.370Z,12.70
2019-05-06T15:32:02.608Z,12.60
2019-05-06T15:35:28.878Z,12.60
2019-05-06T15:38:32.641Z,12.50
2019-05-06T15:41:36.450Z,12.40
2019-05-06T15:44:42.542Z,12.30
2019-05-06T15:47:45.878Z,12.20
2019-05-06T15:50:49.915Z,12.10
2019-05-06T15:53:53.863Z,12.00
2019-05-06T15:56:58.031Z,12.00
2019-05-06T16:00:02.573Z,11.90
2019-05-06T16:03:06.470Z,11.80
2019-05-06T16:06:12.357Z,11.70
2019-05-06T16:09:15.859Z,11.70
2019-05-06T16:12:19.550Z,11.70
2019-05-06T16:15:24.886Z,11.60
2019-05-06T16:18:28.769Z,11.60
2019-05-06T16:21:33.517Z,11.50
2019-05-06T16:24:43.194Z,11.50
2019-05-06T16:27:51.280Z,11.50
2019-05-06T16:30:54.393Z,11.50
2019-05-06T16:33:58.186Z,11.50
2019-05-06T16:37:01.991Z,11.40
2019-05-06T16:40:07.886Z,11.40
2019-05-06T16:43:12.567Z,11.30
2019-05-06T16:46:16.430Z,11.30
2019-05-06T16:49:20.089Z,11.30
2019-05-06T16:52:23.802Z,11.30
2019-05-06T16:55:46.661Z,11.10
2019-05-06T16:58:53.586Z,11.10
2019-05-06T17:01:58.890Z,11.00
2019-05-06T17:05:22.487Z,10.90
2019-05-06T17:08:26.293Z,10.80
2019-05-06T17:11:33.541Z,10.70
2019-05-06T17:14:35.686Z,10.60
2019-05-06T17:17:43.598Z,10.60
2019-05-06T17:20:45.034Z,10.50
2019-05-06T17:23:48.746Z,10.50
2019-05-06T17:26:56.064Z,10.50
2019-05-06T17:30:15.318Z,10.50
2019-05-06T17:33:36.716Z,10.50
2019-05-06T17:36:42.108Z,10.50
2019-05-06T17:39:46.201Z,10.60
2019-05-06T17:42:50.210Z,10.60
2019-05-06T17:46:02.261Z,10.60
2019-05-06T17:49:08.883Z,10.70
2019-05-06T17:52:18.759Z,10.70
2019-05-06T17:55:22.558Z,10.60
2019-05-06T17:58:26.526Z,10.50
2019-05-06T18:01:37.420Z,10.50
2019-05-06T18:04:43.056Z,10.50
2019-05-06T18:07:46.611Z,10.40
2019-05-06T18:10:52.151Z,10.30
2019-05-06T18:13:55.897Z,10.20
2019-05-06T18:16:59.561Z,10.10
2019-05-06T18:20:03.545Z,10.00
2019-05-06T18:23:07.327Z,10.00
2019-05-06T18:26:11.013Z,9.80
2019-05-06T18:29:14.707Z,9.80
2019-05-06T18:32:18.410Z,9.70
2019-05-06T18:35:29.098Z,9.70
2019-05-06T18:38:33.703Z,9.70
2019-05-06T18:41:37.663Z,9.60
2019-05-06T18:44:42.276Z,9.50
2019-05-06T18:47:46.434Z,9.50
2019-05-06T18:50:51.951Z,9.50
2019-05-06T18:53:55.810Z,9.50
2019-05-06T18:57:02.032Z,9.50
2019-05-06T19:00:05.218Z,9.30
2019-05-06T19:03:08.933Z,9.30
2019-05-06T19:06:12.757Z,9.30
2019-05-06T19:09:32.637Z,9.20
2019-05-06T19:12:41.665Z,9.20
2019-05-06T19:15:47.537Z,9.20
2019-05-06T19:18:52.470Z,9.20
2019-05-06T19:21:56.264Z,9.10
2019-05-06T19:25:02.461Z,9.00
2019-05-06T19:28:05.656Z,9.00
2019-05-06T19:31:09.380Z,9.00
2019-05-06T19:34:13.134Z,9.20
2019-05-06T19:37:17.280Z,8.80
2019-05-06T19:40:23.127Z,8.90
2019-05-06T19:43:27.045Z,8.90
2019-05-06T19:46:32.734Z,8.90
2019-05-06T19:49:36.534Z,8.80
2019-05-06T19:52:42.191Z,8.80
2019-05-06T19:55:47.130Z,8.90
2019-05-06T19:58:52.552Z,8.80
2019-05-06T20:01:56.679Z,8.70
2019-05-06T20:05:08.930Z,8.60
2019-05-06T20:08:23.166Z,8.80
2019-05-06T20:11:33.979Z,8.70
2019-05-06T20:14:37.653Z,8.40
2019-05-06T20:17:42.457Z,8.50
2019-05-06T20:20:52.866Z,8.50
2019-05-06T20:23:56.766Z,8.50
2019-05-06T20:27:02.385Z,8.40
2019-05-06T20:30:06.773Z,8.50
2019-05-06T20:33:12.313Z,8.70
2019-05-06T20:36:15.869Z,8.50
2019-05-06T20:39:19.844Z,8.50
2019-05-06T20:42:23.533Z,8.40
2019-05-06T20:45:27.594Z,8.50
2019-05-06T20:48:32.523Z,8.50
2019-05-06T20:51:36.433Z,8.50
2019-05-06T20:54:42.480Z,8.70
2019-05-06T20:57:45.558Z,8.40
2019-05-06T21:00:49.269Z,8.40
2019-05-06T21:03:52.980Z,8.40
2019-05-06T21:06:56.627Z,8.50
2019-05-06T21:10:02.254Z,8.40
2019-05-06T21:13:06.037Z,8.30
2019-05-06T21:16:09.773Z,8.50
2019-05-06T21:19:13.790Z,8.30
2019-05-06T21:22:18.029Z,8.30
2019-05-06T21:25:22.588Z,8.20
2019-05-06T21:28:26.453Z,8.40
2019-05-06T21:31:32.486Z,8.50
2019-05-06T21:34:35.801Z,8.40
2019-05-06T21:37:42.077Z,8.30
2019-05-06T21:40:45.189Z,8.40
2019-05-06T21:43:50.297Z,8.40
2019-05-06T21:46:54.154Z,8.30
2019-05-06T21:49:57.906Z,8.20
2019-05-06T21:53:02.695Z,8.30
2019-05-06T21:56:06.821Z,8.30
2019-05-06T21:59:12.707Z,8.10
2019-05-06T22:02:17.637Z,8.20
2019-05-06T22:05:22.628Z,8.40
2019-05-06T22:08:26.467Z,8.10
2019-05-06T22:11:31.898Z,8.30
2019-05-06T22:14:35.513Z,8.50
2019-05-06T22:17:39.225Z,8.10
2019-05-06T22:21:02.922Z,8.30
2019-05-06T22:24:07.253Z,8.20
2019-05-06T22:27:12.322Z,8.10
2019-05-06T22:30:16.406Z,8.30
2019-05-06T22:33:22.424Z,8.30
2019-05-06T22:36:26.250Z,8.20
2019-05-06T22:39:31.682Z,8.40
2019-05-06T22:42:35.448Z,8.20
2019-05-06T22:45:39.395Z,8.40
2019-05-06T22:48:43.460Z,8.30
2019-05-06T22:51:47.237Z,8.30
2019-05-06T22:54:52.749Z,8.30
2019-05-06T22:57:56.802Z,8.30
2019-05-06T23:01:00.473Z,8.40
2019-05-06T23:04:04.618Z,8.30
2019-05-06T23:07:08.634Z,8.20
2019-05-06T23:10:12.715Z,8.20
2019-05-06T23:13:16.428Z,8.40
2019-05-06T23:16:20.322Z,8.20
2019-05-06T23:19:24.458Z,8.30
2019-05-06T23:22:28.589Z,8.30
2019-05-06T23:25:32.723Z,8.60
2019-05-06T23:28:36.454Z,8.40
2019-05-06T23:31:42.465Z,8.50
2019-05-06T23:34:45.846Z,8.40
2019-05-06T23:38:25.329Z,8.30
2019-05-06T23:42:04.998Z,8.30
2019-05-06T23:45:44.777Z,8.30
2019-05-06T23:49:24.088Z,8.40
2019-05-06T23:53:03.488Z,8.40
2019-05-06T23:56:43.794Z,8.40
2019-05-06T23:59:47.842Z,8.50
